createdAt,value
2023-01-19T00:01:49.034Z,14.38
2023-01-19T00:04:15.808Z,13.82
2023-01-19T00:06:42.329Z,8.95
2023-01-19T00:09:08.828Z,12.35
2023-01-19T00:11:35.493Z,12.40
2023-01-19T00:14:02.422Z,10.90
2023-01-19T00:16:28.919Z,12.00
2023-01-19T00:18:55.774Z,10.10
2023-01-19T00:21:22.323Z,11.15
2023-01-19T00:23:51.029Z,12.55
2023-01-19T00:26:17.798Z,12.93
2023-01-19T00:28:44.668Z,12.55
2023-01-19T00:31:11.436Z,13.13
2023-01-19T00:33:38.068Z,11.57
2023-01-19T00:36:04.791Z,14.15
2023-01-19T00:38:31.457Z,8.82
2023-01-19T00:40:58.008Z,11.07
2023-01-19T00:43:24.641Z,11.00
2023-01-19T00:45:51.609Z,9.60
2023-01-19T00:48:18.127Z,13.40
2023-01-19T00:50:44.613Z,13.35
2023-01-19T00:53:11.192Z,13.13
2023-01-19T00:55:37.928Z,14.73
2023-01-19T00:58:04.750Z,16.00
2023-01-19T01:00:31.289Z,13.73
2023-01-19T01:02:58.215Z,14.43
2023-01-19T01:05:25.271Z,13.65
2023-01-19T01:07:51.901Z,13.45
2023-01-19T01:10:20.543Z,12.82
2023-01-19T01:12:56.169Z,14.77
2023-01-19T01:15:34.673Z,12.50
2023-01-19T01:18:01.203Z,11.80
2023-01-19T01:20:28.731Z,13.48
2023-01-19T01:22:55.887Z,13.35
2023-01-19T01:25:24.302Z,13.02
2023-01-19T01:27:51.410Z,12.70
2023-01-19T01:30:18.376Z,12.68
2023-01-19T01:32:45.015Z,9.95
2023-01-19T01:35:12.409Z,13.80
2023-01-19T01:37:39.275Z,13.48
2023-01-19T01:40:06.897Z,11.85
2023-01-19T01:42:33.962Z,12.70
2023-01-19T01:45:01.683Z,13.23
2023-01-19T01:47:34.206Z,12.43
2023-01-19T01:50:15.149Z,12.70
2023-01-19T01:52:45.275Z,10.25
2023-01-19T01:55:32.564Z,10.00
2023-01-19T01:58:02.474Z,11.95
2023-01-19T02:00:49.514Z,12.30
2023-01-19T02:03:16.090Z,8.70
2023-01-19T02:05:43.132Z,11.82
2023-01-19T02:08:43.732Z,9.23
2023-01-19T02:11:28.957Z,12.30
2023-01-19T02:13:55.571Z,11.60
2023-01-19T02:16:22.259Z,9.88
2023-01-19T02:18:48.817Z,14.38
2023-01-19T02:21:20.313Z,9.30
2023-01-19T02:23:52.035Z,10.85
2023-01-19T02:26:23.121Z,10.38
2023-01-19T02:28:51.851Z,10.18
2023-01-19T02:31:18.612Z,11.50
2023-01-19T02:33:45.683Z,8.82
2023-01-19T02:36:14.068Z,9.35
2023-01-19T02:38:41.594Z,13.02
2023-01-19T02:41:11.365Z,11.85
2023-01-19T02:43:38.250Z,11.15
2023-01-19T02:46:05.000Z,12.85
2023-01-19T02:48:31.638Z,8.68
2023-01-19T02:51:04.177Z,11.02
2023-01-19T02:53:49.776Z,12.00
2023-01-19T02:56:24.724Z,10.38
2023-01-19T02:58:54.277Z,10.73
2023-01-19T03:01:29.152Z,10.77
2023-01-19T03:04:02.243Z,12.25
2023-01-19T03:06:44.609Z,9.15
2023-01-19T03:09:26.527Z,10.55
2023-01-19T03:11:57.554Z,8.88
2023-01-19T03:14:26.681Z,10.38
2023-01-19T03:17:00.853Z,8.43
2023-01-19T03:19:31.817Z,11.43
2023-01-19T03:21:59.963Z,11.05
2023-01-19T03:24:29.194Z,10.38
2023-01-19T03:26:58.851Z,9.25
2023-01-19T03:29:28.141Z,11.20
2023-01-19T03:31:57.027Z,11.50
2023-01-19T03:34:24.022Z,12.13
2023-01-19T03:36:52.659Z,10.75
2023-01-19T03:39:22.622Z,10.80
2023-01-19T03:41:52.177Z,10.38
2023-01-19T03:44:18.637Z,8.90
2023-01-19T03:46:46.140Z,10.27
2023-01-19T03:49:12.664Z,8.18
2023-01-19T03:51:39.908Z,12.70
2023-01-19T03:54:06.944Z,10.67
2023-01-19T03:56:33.592Z,10.30
2023-01-19T03:59:00.496Z,7.40
2023-01-19T04:01:27.630Z,9.57
2023-01-19T04:03:54.511Z,11.90
2023-01-19T04:06:21.431Z,8.97
2023-01-19T04:08:49.236Z,9.83
2023-01-19T04:11:16.050Z,10.13
2023-01-19T04:13:42.688Z,11.53
2023-01-19T04:16:09.954Z,9.10
2023-01-19T04:18:36.607Z,10.97
2023-01-19T04:21:04.450Z,10.67
2023-01-19T04:23:31.182Z,9.70
2023-01-19T04:25:58.834Z,9.10
2023-01-19T04:28:25.934Z,9.88
2023-01-19T04:30:52.489Z,8.73
2023-01-19T04:33:19.403Z,10.37
2023-01-19T04:35:46.644Z,12.60
2023-01-19T04:38:13.315Z,12.10
2023-01-19T04:40:40.627Z,13.60
2023-01-19T04:43:07.699Z,11.67
2023-01-19T04:45:34.409Z,11.30
2023-01-19T04:48:00.900Z,9.73
2023-01-19T04:50:27.459Z,11.40
2023-01-19T04:52:53.951Z,9.70
2023-01-19T04:55:20.508Z,12.13
2023-01-19T04:57:47.250Z,11.43
2023-01-19T05:00:14.213Z,9.37
2023-01-19T05:02:43.955Z,11.57
2023-01-19T05:05:11.783Z,16.07
2023-01-19T05:07:38.672Z,12.53
2023-01-19T05:10:06.288Z,11.77
2023-01-19T05:12:33.175Z,12.07
2023-01-19T05:14:59.693Z,13.87
2023-01-19T05:17:26.379Z,13.97
2023-01-19T05:19:52.846Z,13.97
2023-01-19T05:22:19.344Z,11.30
2023-01-19T05:24:45.878Z,12.83
2023-01-19T05:27:12.416Z,11.50
2023-01-19T05:29:39.077Z,15.70
2023-01-19T05:32:06.048Z,20.60
2023-01-19T05:34:32.776Z,18.55
2023-01-19T05:36:59.541Z,17.37
2023-01-19T05:39:26.884Z,19.08
2023-01-19T05:41:53.450Z,15.80
2023-01-19T05:44:20.109Z,19.90
2023-01-19T05:46:46.867Z,18.55
2023-01-19T05:49:13.661Z,16.83
2023-01-19T05:51:45.203Z,14.02
2023-01-19T05:54:13.094Z,21.40
2023-01-19T05:56:39.599Z,20.95
2023-01-19T05:59:06.430Z,22.73
2023-01-19T06:01:38.848Z,21.00
2023-01-19T06:04:06.490Z,16.08
2023-01-19T06:06:33.112Z,21.05
2023-01-19T06:08:59.618Z,21.83
2023-01-19T06:11:26.273Z,22.25
2023-01-19T06:13:52.876Z,21.88
2023-01-19T06:16:19.747Z,21.50
2023-01-19T06:18:46.305Z,22.15
2023-01-19T06:21:14.407Z,22.38
2023-01-19T06:23:40.990Z,22.65
2023-01-19T06:26:07.594Z,22.20
2023-01-19T06:28:34.501Z,25.25
2023-01-19T06:31:01.427Z,23.88
2023-01-19T06:33:28.691Z,21.02
2023-01-19T06:35:55.783Z,26.17
2023-01-19T06:38:22.387Z,24.73
2023-01-19T06:40:58.738Z,23.83
2023-01-19T06:43:26.242Z,21.52
2023-01-19T06:45:53.156Z,23.98
2023-01-19T06:48:19.931Z,24.02
2023-01-19T06:50:47.098Z,24.63
2023-01-19T06:53:14.198Z,24.67
2023-01-19T06:55:40.726Z,25.58
2023-01-19T06:58:07.253Z,25.08
2023-01-19T07:00:33.854Z,23.88
2023-01-19T07:03:00.818Z,27.25
2023-01-19T07:05:28.189Z,22.92
2023-01-19T07:07:55.350Z,23.73
2023-01-19T07:10:22.678Z,24.65
2023-01-19T07:12:49.322Z,20.15
2023-01-19T07:15:16.926Z,25.20
2023-01-19T07:17:43.733Z,24.45
2023-01-19T07:20:13.053Z,25.17
2023-01-19T07:22:40.085Z,24.20
2023-01-19T07:25:07.257Z,25.45
2023-01-19T07:27:33.759Z,20.55
2023-01-19T07:30:01.583Z,24.92
2023-01-19T07:32:28.951Z,23.55
2023-01-19T07:34:55.556Z,21.48
2023-01-19T07:37:22.133Z,23.92
2023-01-19T07:39:48.631Z,24.10
2023-01-19T07:42:15.314Z,22.55
2023-01-19T07:44:42.138Z,23.63
2023-01-19T07:47:11.172Z,26.80
2023-01-19T07:49:37.937Z,24.40
2023-01-19T07:52:04.701Z,24.80
2023-01-19T07:54:31.193Z,23.48
2023-01-19T07:56:57.664Z,24.48
2023-01-19T07:59:24.251Z,27.90
2023-01-19T08:01:51.084Z,25.85
2023-01-19T08:04:19.133Z,31.67
2023-01-19T08:06:46.292Z,30.65
2023-01-19T08:09:12.895Z,29.70
2023-01-19T08:11:39.489Z,34.75
2023-01-19T08:14:08.050Z,33.30
2023-01-19T08:16:35.041Z,35.70
2023-01-19T08:19:01.878Z,31.75
2023-01-19T08:21:28.560Z,31.55
2023-01-19T08:23:56.252Z,32.95
2023-01-19T08:26:30.340Z,24.83
2023-01-19T08:28:58.003Z,30.67
2023-01-19T08:31:25.136Z,30.85
2023-01-19T08:33:52.350Z,24.88
2023-01-19T08:36:19.467Z,27.85
2023-01-19T08:38:46.372Z,29.17
2023-01-19T08:41:13.452Z,30.05
2023-01-19T08:43:40.087Z,25.50
2023-01-19T08:46:06.832Z,26.95
2023-01-19T08:48:33.716Z,31.27
2023-01-19T08:51:00.584Z,30.25
2023-01-19T08:53:27.265Z,25.48
2023-01-19T08:55:55.159Z,30.75
2023-01-19T08:58:21.751Z,26.20
2023-01-19T09:00:48.882Z,27.25
2023-01-19T09:03:15.464Z,29.73
2023-01-19T09:05:42.264Z,30.50
2023-01-19T09:08:10.944Z,31.35
2023-01-19T09:10:38.304Z,28.38
2023-01-19T09:13:05.497Z,29.17
2023-01-19T09:15:34.001Z,26.20
2023-01-19T09:18:01.148Z,29.83
2023-01-19T09:20:30.858Z,30.85
2023-01-19T09:22:58.347Z,26.77
2023-01-19T09:25:25.479Z,27.25
2023-01-19T09:27:52.439Z,26.40
2023-01-19T09:30:19.634Z,26.02
2023-01-19T09:32:46.291Z,25.60
2023-01-19T09:35:13.161Z,26.38
2023-01-19T09:37:39.746Z,25.40
2023-01-19T09:40:06.590Z,26.02
2023-01-19T09:42:43.883Z,26.08
2023-01-19T09:45:20.515Z,19.95
2023-01-19T09:47:48.566Z,27.25
2023-01-19T09:50:24.763Z,24.90
2023-01-19T09:52:56.283Z,25.10
2023-01-19T09:55:25.465Z,25.83
2023-01-19T09:57:52.315Z,25.33
2023-01-19T10:00:19.252Z,27.17
2023-01-19T10:02:53.080Z,23.05
2023-01-19T10:05:25.913Z,23.92
2023-01-19T10:07:55.629Z,20.67
2023-01-19T10:10:24.387Z,27.03
2023-01-19T10:13:10.219Z,23.25
2023-01-19T10:15:55.506Z,24.88
2023-01-19T10:18:34.980Z,24.07
2023-01-19T10:21:13.094Z,26.23
2023-01-19T10:23:48.432Z,23.80
2023-01-19T10:26:21.068Z,22.63
2023-01-19T10:28:49.302Z,21.33
2023-01-19T10:31:18.517Z,23.57
2023-01-19T10:33:45.284Z,21.40
2023-01-19T10:36:38.342Z,20.83
2023-01-19T10:39:05.829Z,20.60
2023-01-19T10:41:43.191Z,21.10
2023-01-19T10:44:10.906Z,18.60
2023-01-19T10:46:40.415Z,20.77
2023-01-19T10:49:07.431Z,22.73
2023-01-19T10:51:34.197Z,21.73
2023-01-19T10:54:01.980Z,17.30
2023-01-19T10:56:31.356Z,18.60
2023-01-19T10:59:01.971Z,17.27
2023-01-19T11:01:30.550Z,24.03
2023-01-19T11:04:05.441Z,18.87
2023-01-19T11:06:33.926Z,21.93
2023-01-19T11:09:11.190Z,24.27
2023-01-19T11:11:48.876Z,18.67
2023-01-19T11:14:18.480Z,22.30
2023-01-19T11:16:46.906Z,21.60
2023-01-19T11:19:21.539Z,21.33
2023-01-19T11:21:48.100Z,20.77
2023-01-19T11:24:16.322Z,24.70
2023-01-19T11:26:45.109Z,23.77
2023-01-19T11:29:16.014Z,24.60
2023-01-19T11:31:42.590Z,23.33
2023-01-19T11:34:29.446Z,21.93
2023-01-19T11:36:58.113Z,24.30
2023-01-19T11:39:26.455Z,23.87
2023-01-19T11:41:54.868Z,22.83
2023-01-19T11:44:23.620Z,22.77
2023-01-19T11:46:53.340Z,23.27
2023-01-19T11:49:29.798Z,25.00
2023-01-19T11:52:04.670Z,25.23
2023-01-19T11:54:41.719Z,21.60
2023-01-19T11:57:13.205Z,22.37
2023-01-19T11:59:39.791Z,24.10
2023-01-19T12:02:14.401Z,20.40
2023-01-19T12:04:42.564Z,19.43
2023-01-19T12:07:10.619Z,22.57
2023-01-19T12:09:46.182Z,20.23
2023-01-19T12:12:21.846Z,26.40
2023-01-19T12:15:05.237Z,22.27
2023-01-19T12:17:45.388Z,20.50
2023-01-19T12:20:26.633Z,18.47
2023-01-19T12:23:11.571Z,21.53
2023-01-19T12:25:45.262Z,22.10
2023-01-19T12:28:13.938Z,19.43
2023-01-19T12:30:41.149Z,20.37
2023-01-19T12:33:40.520Z,22.63
2023-01-19T12:36:16.303Z,23.43
2023-01-19T12:38:45.328Z,21.20
2023-01-19T12:41:15.966Z,19.83
2023-01-19T12:43:42.623Z,22.43
2023-01-19T12:46:38.694Z,23.00
2023-01-19T12:49:14.331Z,22.40
2023-01-19T12:51:41.240Z,22.60
2023-01-19T12:54:08.206Z,24.20
2023-01-19T12:56:36.431Z,20.43
2023-01-19T12:59:03.747Z,22.00
2023-01-19T13:01:31.239Z,17.20
2023-01-19T13:03:59.777Z,21.07
2023-01-19T13:06:45.360Z,20.30
2023-01-19T13:09:32.094Z,19.47
2023-01-19T13:12:14.058Z,22.00
2023-01-19T13:14:44.002Z,19.93
2023-01-19T13:17:22.542Z,21.00
2023-01-19T13:19:52.149Z,18.40
2023-01-19T13:22:37.859Z,21.40
2023-01-19T13:25:12.017Z,22.90
2023-01-19T13:27:39.040Z,22.10
2023-01-19T13:30:15.452Z,19.10
2023-01-19T13:32:42.251Z,22.17
2023-01-19T13:35:14.464Z,23.60
2023-01-19T13:37:43.387Z,21.98
2023-01-19T13:40:36.295Z,24.45
2023-01-19T13:43:03.195Z,27.20
2023-01-19T13:45:34.233Z,22.52
2023-01-19T13:48:02.708Z,23.47
2023-01-19T13:50:31.017Z,23.63
2023-01-19T13:52:58.914Z,25.83
2023-01-19T13:55:30.004Z,19.58
2023-01-19T13:57:57.115Z,24.67
2023-01-19T14:00:25.023Z,21.50
2023-01-19T14:02:58.780Z,20.70
2023-01-19T14:05:33.008Z,22.20
2023-01-19T14:08:03.905Z,19.47
2023-01-19T14:10:31.292Z,19.10
2023-01-19T14:13:27.221Z,17.13
2023-01-19T14:15:56.139Z,18.47
2023-01-19T14:18:22.774Z,17.33
2023-01-19T14:20:52.465Z,18.00
2023-01-19T14:23:38.117Z,18.73
2023-01-19T14:26:04.839Z,20.63
2023-01-19T14:28:44.670Z,18.38
2023-01-19T14:31:19.182Z,20.50
2023-01-19T14:33:46.996Z,22.03
2023-01-19T14:36:14.131Z,21.88
2023-01-19T14:38:45.791Z,21.05
2023-01-19T14:41:13.483Z,20.60
2023-01-19T14:43:44.317Z,18.77
2023-01-19T14:46:18.335Z,18.38
2023-01-19T14:48:49.121Z,17.67
2023-01-19T14:51:21.978Z,18.17
2023-01-19T14:53:51.294Z,15.00
2023-01-19T14:56:31.306Z,16.83
2023-01-19T14:58:58.849Z,17.87
2023-01-19T15:01:28.574Z,16.98
2023-01-19T15:03:58.969Z,18.02
2023-01-19T15:06:26.205Z,17.80
2023-01-19T15:08:53.693Z,18.07
2023-01-19T15:11:33.842Z,13.47
2023-01-19T15:14:00.644Z,17.20
2023-01-19T15:16:28.851Z,15.30
2023-01-19T15:18:55.837Z,16.70
2023-01-19T15:21:29.247Z,16.77
2023-01-19T15:23:55.973Z,16.80
2023-01-19T15:26:23.856Z,19.23
2023-01-19T15:28:50.754Z,18.10
2023-01-19T15:31:24.935Z,19.07
2023-01-19T15:33:51.721Z,16.10
2023-01-19T15:36:19.904Z,14.73
2023-01-19T15:38:46.860Z,15.70
2023-01-19T15:41:24.758Z,15.27
2023-01-19T15:43:51.658Z,14.00
2023-01-19T15:46:22.700Z,10.87
2023-01-19T15:48:50.440Z,11.30
2023-01-19T15:51:18.632Z,15.52
2023-01-19T15:53:45.530Z,14.43
2023-01-19T15:56:15.685Z,8.40
2023-01-19T15:58:42.863Z,13.20
2023-01-19T16:01:20.105Z,13.88
2023-01-19T16:03:47.041Z,9.27
2023-01-19T16:06:16.194Z,9.77
2023-01-19T16:08:42.979Z,10.88
2023-01-19T16:11:11.064Z,12.03
2023-01-19T16:13:38.048Z,13.93
2023-01-19T16:16:05.617Z,11.60
2023-01-19T16:18:32.849Z,13.45
2023-01-19T16:20:59.630Z,11.65
2023-01-19T16:23:26.306Z,11.75
2023-01-19T16:25:57.566Z,10.82
2023-01-19T16:28:24.531Z,11.15
2023-01-19T16:30:52.267Z,12.35
2023-01-19T16:33:20.367Z,10.77
2023-01-19T16:35:47.108Z,10.93
2023-01-19T16:38:14.038Z,12.68
2023-01-19T16:40:40.617Z,10.35
2023-01-19T16:43:07.311Z,11.57
2023-01-19T16:45:33.975Z,8.88
2023-01-19T16:48:00.809Z,10.13
2023-01-19T16:50:27.440Z,9.38
2023-01-19T16:52:57.632Z,11.00
2023-01-19T16:55:24.485Z,12.43
2023-01-19T16:57:52.631Z,8.38
2023-01-19T17:00:19.717Z,12.40
2023-01-19T17:02:46.662Z,10.77
2023-01-19T17:05:14.577Z,11.52
2023-01-19T17:07:41.299Z,12.05
2023-01-19T17:10:08.373Z,11.50
2023-01-19T17:12:35.270Z,11.13
2023-01-19T17:15:01.866Z,12.18
2023-01-19T17:17:28.563Z,12.32
2023-01-19T17:19:55.201Z,12.70
2023-01-19T17:22:21.839Z,12.75
2023-01-19T17:24:49.234Z,12.15
2023-01-19T17:27:17.244Z,13.05
2023-01-19T17:29:43.861Z,12.15
2023-01-19T17:32:10.483Z,11.88
2023-01-19T17:34:37.134Z,13.00
2023-01-19T17:37:03.824Z,13.60
2023-01-19T17:39:30.511Z,12.63
2023-01-19T17:41:57.476Z,13.70
2023-01-19T17:44:24.106Z,14.25
2023-01-19T17:46:51.027Z,14.20
2023-01-19T17:49:17.784Z,26.13
2023-01-19T17:51:44.520Z,23.33
2023-01-19T17:54:11.477Z,44.85
2023-01-19T17:56:40.558Z,14.88
2023-01-19T17:59:08.281Z,14.18
2023-01-19T18:01:38.331Z,14.75
2023-01-19T18:04:05.613Z,12.93
2023-01-19T18:06:32.378Z,49.28
2023-01-19T18:08:59.487Z,31.50
2023-01-19T18:11:26.630Z,37.60
2023-01-19T18:13:53.513Z,16.17
2023-01-19T18:16:24.756Z,16.98
2023-01-19T18:18:53.625Z,15.50
2023-01-19T18:21:21.924Z,13.77
2023-01-19T18:23:49.288Z,15.23
2023-01-19T18:26:17.401Z,15.70
2023-01-19T18:28:43.997Z,14.73
2023-01-19T18:31:11.627Z,14.55
2023-01-19T18:33:39.040Z,14.35
2023-01-19T18:36:06.408Z,14.02
2023-01-19T18:38:33.335Z,14.02
2023-01-19T18:41:03.968Z,12.38
2023-01-19T18:43:30.669Z,13.65
2023-01-19T18:45:57.518Z,12.80
2023-01-19T18:48:24.185Z,12.30
2023-01-19T18:50:50.972Z,13.13
2023-01-19T18:53:17.638Z,13.25
2023-01-19T18:56:03.369Z,13.90
2023-01-19T18:58:31.456Z,17.15
2023-01-19T19:01:01.170Z,15.52
2023-01-19T19:03:28.052Z,17.00
2023-01-19T19:05:54.896Z,15.95
2023-01-19T19:08:21.583Z,13.95
2023-01-19T19:10:48.131Z,16.50
2023-01-19T19:13:15.727Z,14.68
2023-01-19T19:15:44.520Z,16.08
2023-01-19T19:18:13.838Z,17.05
2023-01-19T19:20:42.030Z,17.58
2023-01-19T19:23:09.173Z,16.10
2023-01-19T19:25:35.713Z,16.73
2023-01-19T19:28:02.312Z,16.05
2023-01-19T19:30:29.275Z,16.00
2023-01-19T19:32:56.671Z,17.95
2023-01-19T19:35:23.651Z,18.23
2023-01-19T19:37:51.404Z,17.55
2023-01-19T19:40:18.215Z,19.75
2023-01-19T19:42:44.794Z,19.20
2023-01-19T19:45:11.713Z,19.60
2023-01-19T19:47:38.382Z,21.38
2023-01-19T19:50:05.096Z,21.10
2023-01-19T19:52:32.069Z,17.80
2023-01-19T19:54:58.930Z,18.85
2023-01-19T19:57:25.459Z,20.17
2023-01-19T19:59:52.290Z,19.98
2023-01-19T20:02:18.984Z,22.80
2023-01-19T20:04:45.827Z,28.60
2023-01-19T20:07:12.610Z,20.30
2023-01-19T20:09:39.459Z,22.23
2023-01-19T20:12:06.400Z,23.40
2023-01-19T20:14:32.933Z,25.73
2023-01-19T20:17:00.593Z,23.20
2023-01-19T20:19:27.133Z,23.25
2023-01-19T20:21:53.858Z,28.10
2023-01-19T20:24:21.041Z,23.10
2023-01-19T20:26:50.282Z,23.75
2023-01-19T20:29:17.338Z,25.63
2023-01-19T20:31:45.868Z,25.52
2023-01-19T20:34:13.663Z,25.92
2023-01-19T20:36:41.201Z,25.85
2023-01-19T20:39:11.460Z,25.30
2023-01-19T20:41:43.500Z,26.38
2023-01-19T20:44:15.126Z,24.35
2023-01-19T20:46:42.239Z,26.38
2023-01-19T20:49:09.054Z,28.92
2023-01-19T20:51:37.340Z,27.48
2023-01-19T20:54:04.256Z,23.85
2023-01-19T20:56:31.256Z,27.77
2023-01-19T20:58:58.870Z,24.45
2023-01-19T21:01:25.688Z,23.63
2023-01-19T21:03:52.491Z,24.67
2023-01-19T21:06:19.707Z,25.00
2023-01-19T21:08:46.489Z,26.52
2023-01-19T21:11:13.284Z,23.88
2023-01-19T21:13:39.806Z,24.63
2023-01-19T21:16:06.902Z,21.90
2023-01-19T21:18:33.457Z,23.05
2023-01-19T21:21:00.102Z,26.60
2023-01-19T21:23:27.334Z,24.92
2023-01-19T21:25:55.185Z,25.20
2023-01-19T21:28:22.896Z,28.02
2023-01-19T21:30:49.852Z,28.05
2023-01-19T21:33:16.939Z,28.13
2023-01-19T21:35:50.376Z,26.00
2023-01-19T21:38:17.034Z,27.17
2023-01-19T21:40:43.522Z,25.27
2023-01-19T21:43:11.763Z,26.65
2023-01-19T21:45:38.325Z,27.58
2023-01-19T21:48:04.847Z,27.98
2023-01-19T21:50:31.573Z,26.70
2023-01-19T21:52:58.125Z,27.95
2023-01-19T21:55:24.647Z,26.42
2023-01-19T21:57:54.232Z,26.58
2023-01-19T22:00:21.035Z,29.00
2023-01-19T22:03:02.743Z,27.92
2023-01-19T22:05:30.155Z,26.38
2023-01-19T22:07:56.714Z,27.15
2023-01-19T22:10:23.193Z,27.50
2023-01-19T22:12:49.677Z,32.45
2023-01-19T22:15:16.509Z,30.85
2023-01-19T22:17:43.029Z,30.35
2023-01-19T22:20:10.031Z,32.28
2023-01-19T22:22:36.631Z,30.92
2023-01-19T22:25:05.266Z,30.95
2023-01-19T22:27:33.356Z,33.75
2023-01-19T22:30:00.113Z,31.80
2023-01-19T22:32:26.697Z,33.55
2023-01-19T22:34:53.165Z,32.72
2023-01-19T22:37:19.782Z,31.77
2023-01-19T22:39:46.300Z,29.77
2023-01-19T22:42:12.741Z,29.08
2023-01-19T22:44:39.291Z,30.10
2023-01-19T22:47:05.836Z,30.40
2023-01-19T22:49:32.364Z,31.58
2023-01-19T22:51:59.104Z,29.25
2023-01-19T22:54:25.712Z,34.08
2023-01-19T22:56:52.210Z,31.05
2023-01-19T22:59:18.969Z,28.35
2023-01-19T23:01:45.834Z,30.58
2023-01-19T23:04:13.532Z,28.77
2023-01-19T23:06:40.067Z,30.25
2023-01-19T23:09:08.159Z,28.52
2023-01-19T23:11:36.531Z,29.30
2023-01-19T23:14:04.086Z,27.65
2023-01-19T23:16:30.637Z,27.73
2023-01-19T23:18:58.030Z,27.30
2023-01-19T23:21:26.169Z,26.40
2023-01-19T23:23:53.770Z,27.92
2023-01-19T23:26:20.334Z,27.10
2023-01-19T23:28:46.907Z,27.73
2023-01-19T23:31:14.885Z,27.45
2023-01-19T23:33:41.616Z,25.75
2023-01-19T23:36:08.520Z,29.48
2023-01-19T23:38:51.472Z,29.38
2023-01-19T23:41:18.641Z,28.83
2023-01-19T23:43:45.559Z,28.05
2023-01-19T23:46:12.662Z,24.80
2023-01-19T23:48:39.445Z,24.75
2023-01-19T23:51:07.234Z,27.05
2023-01-19T23:53:33.824Z,27.02
2023-01-19T23:56:08.145Z,24.30
2023-01-19T23:58:34.635Z,24.00
